Terminal Aerodrome Forecast
Issued by NWS

Home | Current Version | Previous Version | Text Only | Print | Product List | Glossary On
Versions: 1 2 3 4 5 6 7 8 9 10 11 12 13 14 15 16 17 18
000
FTUS43 KDVN 171100 RRA
TAFBRL
TAF
KBRL 171143Z 1712/1812 31010KT P6SM OVC015
     FM171900 32008KT P6SM SCT025
     FM180300 36004KT P6SM BKN100=

USA.gov is the U.S. government's official web portal to all federal, state and local government web resources and services.